Fort Myers, FL

3:19 AM EST on February 10, 2016 (GMT -0500)
Page | | Change Station
CLOSE
Current Station
Airport
Location: Fort Myers,
Elevation: 16 ft
Nearby Weather Stations

Elev 16 ft 26.58 °N, 81.86 °W | Updated 26 minutes ago

Overcast
Overcast
57 °F
Feels Like 57 °F
N
7
Wind Variable Wind from NNW

Today
High -- | Low -- °F
--% Chance of Precip.
Yesterday
High -- | Low -- °F
Precip. -- in
Pressure 30.12 in
Visibility 10.0 miles
Clouds Mostly Cloudy 4500 ft
Overcast 6000 ft
Dew Point 47 °F
Humidity 69%
Rainfall 0.00 in
Snow Depth Not available.
7:07 AM 6:16 PM
Waxing Crescent, 4% visible
METAR KFMY 100753Z AUTO 33006KT 10SM BKN045 OVC060 14/08 A3011 RMK AO2 SLP198 T01390083
Pressure 30.12 in
Visibility 10.0 miles
Clouds Mostly Cloudy 4500 ft
Overcast 6000 ft
Dew Point 47 °F
Humidity 69%
Rainfall 0.00 in
Snow Depth Not available.
7:07 AM 6:16 PM
Waxing Crescent, 4% visible
METAR KFMY 100753Z AUTO 33006KT 10SM BKN045 OVC060 14/08 A3011 RMK AO2 SLP198 T01390083

10-Day Weather Forecast

Almanac

Astronomy

Feb. 10, 2016 Rise Set
Actual Time
Civil Twilight
Nautical Twilight
Astronomical Twilight
Moon
Length of Visible Light
Length of Day
Tomorrow will be .
, % of the Moon is Illuminated

Today's Extremes

State Highs State Lows

Community

WunderPhotos

Upload Photos

1,891,826 photos uploaded!

WunderBlog® & News

Nearby

Air Quality

  Air Quality AQ Index Pollutant
Not available.

Snow Depth

Station Depth Elevation

Earthquake Activity

City Distance Mag. Time & Date
Minimum magnitude displayed is 2.5.

Coastal Water Temperatures

Place Temperature

Stations

Nearby Weather Stations

Station Location Temp. Windchill Dew Point Humidity Wind Precip. Elev Updated Type
                   

Watches & Warnings

There are currently no watches in effect.